sensor_id;sensor_type;location;lat;lon;timestamp;P1;durP1;ratioP1;P2;durP2;ratioP2
63975;SDS011;50167;47.958;21.780;2022-12-11T00:00:43;4.27;;;2.67;;
63975;SDS011;50167;47.958;21.780;2022-12-11T00:03:10;3.50;;;2.50;;
63975;SDS011;50167;47.958;21.780;2022-12-11T00:05:38;5.80;;;2.73;;
63975;SDS011;50167;47.958;21.780;2022-12-11T00:08:06;4.60;;;2.63;;
63975;SDS011;50167;47.958;21.780;2022-12-11T00:10:32;3.97;;;2.70;;
63975;SDS011;50167;47.958;21.780;2022-12-11T00:12:58;3.70;;;2.77;;
63975;SDS011;50167;47.958;21.780;2022-12-11T00:15:24;3.67;;;2.43;;
63975;SDS011;50167;47.958;21.780;2022-12-11T00:17:50;3.27;;;2.20;;
63975;SDS011;50167;47.958;21.780;2022-12-11T00:20:16;5.47;;;3.70;;
63975;SDS011;50167;47.958;21.780;2022-12-11T00:22:43;3.70;;;2.07;;
63975;SDS011;50167;47.958;21.780;2022-12-11T00:25:09;3.43;;;2.77;;
63975;SDS011;50167;47.958;21.780;2022-12-11T00:27:35;3.20;;;2.43;;
63975;SDS011;50167;47.958;21.780;2022-12-11T00:30:02;3.80;;;2.20;;
63975;SDS011;50167;47.958;21.780;2022-12-11T00:32:29;2.73;;;2.00;;
63975;SDS011;50167;47.958;21.780;2022-12-11T00:34:56;2.77;;;1.80;;
63975;SDS011;50167;47.958;21.780;2022-12-11T00:37:22;2.90;;;2.13;;
63975;SDS011;50167;47.958;21.780;2022-12-11T00:39:48;4.10;;;2.20;;
63975;SDS011;50167;47.958;21.780;2022-12-11T00:42:14;2.53;;;1.80;;
63975;SDS011;50167;47.958;21.780;2022-12-11T00:44:41;4.30;;;2.10;;
63975;SDS011;50167;47.958;21.780;2022-12-11T00:47:07;2.80;;;1.90;;
63975;SDS011;50167;47.958;21.780;2022-12-11T00:49:33;3.87;;;1.80;;
63975;SDS011;50167;47.958;21.780;2022-12-11T00:51:59;6.20;;;1.70;;
63975;SDS011;50167;47.958;21.780;2022-12-11T00:54:25;1.57;;;1.47;;
63975;SDS011;50167;47.958;21.780;2022-12-11T00:56:51;2.73;;;2.00;;
63975;SDS011;50167;47.958;21.780;2022-12-11T00:59:19;2.43;;;1.50;;
63975;SDS011;50167;47.958;21.780;2022-12-11T01:01:45;3.43;;;2.03;;
63975;SDS011;50167;47.958;21.780;2022-12-11T01:04:11;4.57;;;1.93;;
63975;SDS011;50167;47.958;21.780;2022-12-11T01:06:46;2.93;;;1.60;;
63975;SDS011;50167;47.958;21.780;2022-12-11T01:14:02;2.23;;;1.40;;
63975;SDS011;50167;47.958;21.780;2022-12-11T01:16:30;1.63;;;1.43;;
63975;SDS011;50167;47.958;21.780;2022-12-11T01:18:57;4.17;;;2.13;;
63975;SDS011;50167;47.958;21.780;2022-12-11T01:21:24;3.40;;;1.70;;
63975;SDS011;50167;47.958;21.780;2022-12-11T01:23:50;5.03;;;1.77;;
63975;SDS011;50167;47.958;21.780;2022-12-11T01:26:17;1.77;;;1.47;;
63975;SDS011;50167;47.958;21.780;2022-12-11T01:28:43;3.60;;;2.43;;
63975;SDS011;50167;47.958;21.780;2022-12-11T01:31:10;5.63;;;2.30;;
63975;SDS011;50167;47.958;21.780;2022-12-11T01:33:39;2.00;;;1.80;;
63975;SDS011;50167;47.958;21.780;2022-12-11T01:36:13;2.07;;;1.43;;
63975;SDS011;50167;47.958;21.780;2022-12-11T01:38:43;1.80;;;1.30;;
63975;SDS011;50167;47.958;21.780;2022-12-11T01:41:14;2.85;;;1.45;;
63975;SDS011;50167;47.958;21.780;2022-12-11T01:43:54;2.00;;;1.40;;
63975;SDS011;50167;47.958;21.780;2022-12-11T01:46:27;2.90;;;1.47;;
63975;SDS011;50167;47.958;21.780;2022-12-11T01:48:55;2.87;;;1.80;;
63975;SDS011;50167;47.958;21.780;2022-12-11T01:51:23;1.93;;;1.47;;
63975;SDS011;50167;47.958;21.780;2022-12-11T01:53:50;5.20;;;2.00;;
63975;SDS011;50167;47.958;21.780;2022-12-11T01:58:48;2.53;;;1.77;;
63975;SDS011;50167;47.958;21.780;2022-12-11T02:01:27;2.20;;;1.30;;
63975;SDS011;50167;47.958;21.780;2022-12-11T02:03:59;3.37;;;2.05;;
63975;SDS011;50167;47.958;21.780;2022-12-11T02:06:34;3.57;;;1.27;;
63975;SDS011;50167;47.958;21.780;2022-12-11T02:09:12;2.73;;;1.60;;
63975;SDS011;50167;47.958;21.780;2022-12-11T02:14:55;3.97;;;1.60;;
63975;SDS011;50167;47.958;21.780;2022-12-11T02:23:38;4.67;;;1.30;;
63975;SDS011;50167;47.958;21.780;2022-12-11T02:28:49;1.73;;;1.40;;
63975;SDS011;50167;47.958;21.780;2022-12-11T02:31:31;2.87;;;1.57;;
63975;SDS011;50167;47.958;21.780;2022-12-11T02:34:20;1.63;;;1.27;;
63975;SDS011;50167;47.958;21.780;2022-12-11T02:36:48;3.13;;;1.67;;
63975;SDS011;50167;47.958;21.780;2022-12-11T02:39:18;2.77;;;1.77;;
63975;SDS011;50167;47.958;21.780;2022-12-11T02:41:48;4.60;;;1.27;;
63975;SDS011;50167;47.958;21.780;2022-12-11T02:44:16;1.77;;;1.40;;
63975;SDS011;50167;47.958;21.780;2022-12-11T02:46:50;2.33;;;1.70;;
63975;SDS011;50167;47.958;21.780;2022-12-11T02:49:18;3.90;;;1.67;;
63975;SDS011;50167;47.958;21.780;2022-12-11T02:51:47;1.73;;;1.40;;
63975;SDS011;50167;47.958;21.780;2022-12-11T02:54:16;2.33;;;1.30;;
63975;SDS011;50167;47.958;21.780;2022-12-11T02:57:23;2.30;;;1.40;;
63975;SDS011;50167;47.958;21.780;2022-12-11T02:59:52;5.53;;;1.40;;
63975;SDS011;50167;47.958;21.780;2022-12-11T03:02:18;1.70;;;1.10;;
63975;SDS011;50167;47.958;21.780;2022-12-11T03:04:45;2.57;;;1.40;;
63975;SDS011;50167;47.958;21.780;2022-12-11T03:07:15;1.60;;;1.20;;
63975;SDS011;50167;47.958;21.780;2022-12-11T03:09:52;2.73;;;1.27;;
63975;SDS011;50167;47.958;21.780;2022-12-11T03:12:20;3.40;;;1.47;;
63975;SDS011;50167;47.958;21.780;2022-12-11T03:14:50;5.47;;;1.10;;
63975;SDS011;50167;47.958;21.780;2022-12-11T03:17:18;3.53;;;1.40;;
63975;SDS011;50167;47.958;21.780;2022-12-11T03:22:19;1.47;;;1.13;;
63975;SDS011;50167;47.958;21.780;2022-12-11T03:25:02;2.13;;;1.43;;
63975;SDS011;50167;47.958;21.780;2022-12-11T03:27:36;3.07;;;1.40;;
63975;SDS011;50167;47.958;21.780;2022-12-11T03:30:22;9.40;;;1.73;;
63975;SDS011;50167;47.958;21.780;2022-12-11T03:33:03;2.57;;;1.43;;
63975;SDS011;50167;47.958;21.780;2022-12-11T03:35:34;1.93;;;1.20;;
63975;SDS011;50167;47.958;21.780;2022-12-11T03:38:15;1.87;;;1.50;;
63975;SDS011;50167;47.958;21.780;2022-12-11T03:40:49;3.07;;;1.87;;
63975;SDS011;50167;47.958;21.780;2022-12-11T03:45:47;3.43;;;1.50;;
63975;SDS011;50167;47.958;21.780;2022-12-11T03:48:16;3.13;;;1.97;;
63975;SDS011;50167;47.958;21.780;2022-12-11T03:50:43;1.93;;;1.20;;
63975;SDS011;50167;47.958;21.780;2022-12-11T03:53:11;3.30;;;1.60;;
63975;SDS011;50167;47.958;21.780;2022-12-11T03:55:37;3.03;;;2.00;;
63975;SDS011;50167;47.958;21.780;2022-12-11T03:58:04;2.57;;;1.60;;
63975;SDS011;50167;47.958;21.780;2022-12-11T04:00:31;2.77;;;1.70;;
63975;SDS011;50167;47.958;21.780;2022-12-11T04:02:57;10.17;;;2.90;;
63975;SDS011;50167;47.958;21.780;2022-12-11T04:05:41;1.77;;;1.30;;
63975;SDS011;50167;47.958;21.780;2022-12-11T04:08:10;2.20;;;1.75;;
63975;SDS011;50167;47.958;21.780;2022-12-11T04:10:37;2.87;;;1.90;;
63975;SDS011;50167;47.958;21.780;2022-12-11T04:13:05;4.40;;;1.87;;
63975;SDS011;50167;47.958;21.780;2022-12-11T04:15:33;2.23;;;1.80;;
63975;SDS011;50167;47.958;21.780;2022-12-11T04:18:00;4.77;;;1.83;;
63975;SDS011;50167;47.958;21.780;2022-12-11T04:20:44;4.53;;;1.53;;
63975;SDS011;50167;47.958;21.780;2022-12-11T04:23:29;3.23;;;1.50;;
63975;SDS011;50167;47.958;21.780;2022-12-11T04:26:17;1.37;;;1.10;;
63975;SDS011;50167;47.958;21.780;2022-12-11T04:28:46;3.10;;;2.03;;
63975;SDS011;50167;47.958;21.780;2022-12-11T04:31:14;6.77;;;1.60;;
63975;SDS011;50167;47.958;21.780;2022-12-11T04:33:44;1.85;;;0.85;;
63975;SDS011;50167;47.958;21.780;2022-12-11T04:36:11;2.67;;;1.67;;
63975;SDS011;50167;47.958;21.780;2022-12-11T04:38:39;2.40;;;1.57;;
63975;SDS011;50167;47.958;21.780;2022-12-11T04:41:07;1.80;;;1.70;;
63975;SDS011;50167;47.958;21.780;2022-12-11T04:43:35;1.73;;;1.33;;
63975;SDS011;50167;47.958;21.780;2022-12-11T04:46:09;2.90;;;1.70;;
63975;SDS011;50167;47.958;21.780;2022-12-11T04:48:44;2.20;;;1.20;;
63975;SDS011;50167;47.958;21.780;2022-12-11T04:51:11;1.90;;;1.13;;
63975;SDS011;50167;47.958;21.780;2022-12-11T04:53:38;2.53;;;1.97;;
63975;SDS011;50167;47.958;21.780;2022-12-11T04:56:11;2.30;;;1.37;;
63975;SDS011;50167;47.958;21.780;2022-12-11T04:58:35;2.43;;;1.10;;
63975;SDS011;50167;47.958;21.780;2022-12-11T05:01:09;2.60;;;1.80;;
63975;SDS011;50167;47.958;21.780;2022-12-11T05:03:44;2.03;;;1.50;;
63975;SDS011;50167;47.958;21.780;2022-12-11T05:06:11;3.67;;;2.43;;
63975;SDS011;50167;47.958;21.780;2022-12-11T05:08:39;2.93;;;1.67;;
63975;SDS011;50167;47.958;21.780;2022-12-11T05:11:08;1.87;;;1.60;;
63975;SDS011;50167;47.958;21.780;2022-12-11T05:13:37;1.67;;;1.30;;
63975;SDS011;50167;47.958;21.780;2022-12-11T05:16:04;2.83;;;1.40;;
63975;SDS011;50167;47.958;21.780;2022-12-11T05:18:33;1.97;;;1.40;;
63975;SDS011;50167;47.958;21.780;2022-12-11T05:21:00;2.47;;;1.40;;
63975;SDS011;50167;47.958;21.780;2022-12-11T05:23:30;2.15;;;1.47;;
63975;SDS011;50167;47.958;21.780;2022-12-11T05:25:58;2.03;;;1.20;;
63975;SDS011;50167;47.958;21.780;2022-12-11T05:28:27;2.13;;;1.80;;
63975;SDS011;50167;47.958;21.780;2022-12-11T05:30:59;1.90;;;1.40;;
63975;SDS011;50167;47.958;21.780;2022-12-11T05:33:35;3.00;;;1.40;;
63975;SDS011;50167;47.958;21.780;2022-12-11T05:36:01;1.20;;;1.07;;
63975;SDS011;50167;47.958;21.780;2022-12-11T05:38:27;1.87;;;1.37;;
63975;SDS011;50167;47.958;21.780;2022-12-11T05:40:55;0.97;;;0.83;;
63975;SDS011;50167;47.958;21.780;2022-12-11T05:43:24;1.80;;;1.00;;
63975;SDS011;50167;47.958;21.780;2022-12-11T05:46:04;1.53;;;1.17;;
63975;SDS011;50167;47.958;21.780;2022-12-11T05:48:39;1.53;;;1.03;;
63975;SDS011;50167;47.958;21.780;2022-12-11T05:51:07;7.73;;;1.43;;
63975;SDS011;50167;47.958;21.780;2022-12-11T05:53:34;1.57;;;1.47;;
63975;SDS011;50167;47.958;21.780;2022-12-11T05:56:03;5.13;;;2.07;;
63975;SDS011;50167;47.958;21.780;2022-12-11T05:58:33;1.60;;;1.07;;
63975;SDS011;50167;47.958;21.780;2022-12-11T06:00:59;2.07;;;1.43;;
63975;SDS011;50167;47.958;21.780;2022-12-11T06:03:26;1.20;;;1.10;;
63975;SDS011;50167;47.958;21.780;2022-12-11T06:05:53;1.23;;;1.00;;
63975;SDS011;50167;47.958;21.780;2022-12-11T06:08:19;3.83;;;1.10;;
63975;SDS011;50167;47.958;21.780;2022-12-11T06:10:48;1.10;;;0.90;;
63975;SDS011;50167;47.958;21.780;2022-12-11T06:13:15;1.60;;;1.17;;
63975;SDS011;50167;47.958;21.780;2022-12-11T06:15:42;3.20;;;1.73;;
63975;SDS011;50167;47.958;21.780;2022-12-11T06:18:08;2.17;;;1.10;;
63975;SDS011;50167;47.958;21.780;2022-12-11T06:20:34;3.77;;;1.63;;
63975;SDS011;50167;47.958;21.780;2022-12-11T06:23:01;2.07;;;1.33;;
63975;SDS011;50167;47.958;21.780;2022-12-11T06:25:28;1.80;;;1.23;;
63975;SDS011;50167;47.958;21.780;2022-12-11T06:27:54;1.70;;;0.93;;
63975;SDS011;50167;47.958;21.780;2022-12-11T06:30:20;2.63;;;1.60;;
63975;SDS011;50167;47.958;21.780;2022-12-11T06:32:48;1.57;;;1.13;;
63975;SDS011;50167;47.958;21.780;2022-12-11T06:35:14;1.33;;;0.97;;
63975;SDS011;50167;47.958;21.780;2022-12-11T06:37:40;1.60;;;0.90;;
63975;SDS011;50167;47.958;21.780;2022-12-11T06:40:07;1.63;;;1.00;;
63975;SDS011;50167;47.958;21.780;2022-12-11T06:42:37;3.00;;;1.45;;
63975;SDS011;50167;47.958;21.780;2022-12-11T06:45:03;2.70;;;1.40;;
63975;SDS011;50167;47.958;21.780;2022-12-11T06:47:30;1.87;;;1.40;;
63975;SDS011;50167;47.958;21.780;2022-12-11T06:49:57;2.97;;;1.40;;
63975;SDS011;50167;47.958;21.780;2022-12-11T06:52:23;1.97;;;1.30;;
63975;SDS011;50167;47.958;21.780;2022-12-11T06:54:52;0.80;;;0.73;;
63975;SDS011;50167;47.958;21.780;2022-12-11T06:57:18;2.23;;;1.10;;
63975;SDS011;50167;47.958;21.780;2022-12-11T06:59:44;1.17;;;0.93;;
63975;SDS011;50167;47.958;21.780;2022-12-11T07:02:11;1.03;;;0.87;;
63975;SDS011;50167;47.958;21.780;2022-12-11T07:04:39;5.00;;;1.20;;
63975;SDS011;50167;47.958;21.780;2022-12-11T07:07:06;1.60;;;1.33;;
63975;SDS011;50167;47.958;21.780;2022-12-11T07:09:35;1.17;;;1.00;;
63975;SDS011;50167;47.958;21.780;2022-12-11T07:12:04;1.52;;;1.32;;
63975;SDS011;50167;47.958;21.780;2022-12-11T07:14:31;2.30;;;1.07;;
63975;SDS011;50167;47.958;21.780;2022-12-11T07:16:58;2.10;;;0.80;;
63975;SDS011;50167;47.958;21.780;2022-12-11T07:19:24;1.07;;;0.97;;
63975;SDS011;50167;47.958;21.780;2022-12-11T07:21:51;1.30;;;0.90;;
63975;SDS011;50167;47.958;21.780;2022-12-11T07:24:17;1.13;;;0.80;;
63975;SDS011;50167;47.958;21.780;2022-12-11T07:26:44;4.77;;;1.20;;
63975;SDS011;50167;47.958;21.780;2022-12-11T07:29:10;1.20;;;0.90;;
63975;SDS011;50167;47.958;21.780;2022-12-11T07:31:36;1.77;;;1.10;;
63975;SDS011;50167;47.958;21.780;2022-12-11T07:34:04;1.03;;;0.70;;
63975;SDS011;50167;47.958;21.780;2022-12-11T07:36:32;1.23;;;1.00;;
63975;SDS011;50167;47.958;21.780;2022-12-11T07:38:59;2.20;;;1.30;;
63975;SDS011;50167;47.958;21.780;2022-12-11T07:41:26;5.50;;;1.80;;
63975;SDS011;50167;47.958;21.780;2022-12-11T07:43:53;2.67;;;2.20;;
63975;SDS011;50167;47.958;21.780;2022-12-11T07:46:22;8.90;;;5.53;;
63975;SDS011;50167;47.958;21.780;2022-12-11T07:48:51;2.33;;;2.10;;
63975;SDS011;50167;47.958;21.780;2022-12-11T07:51:22;2.87;;;1.63;;
63975;SDS011;50167;47.958;21.780;2022-12-11T07:53:57;1.40;;;1.10;;
63975;SDS011;50167;47.958;21.780;2022-12-11T07:56:25;1.50;;;1.40;;
63975;SDS011;50167;47.958;21.780;2022-12-11T07:58:53;1.30;;;1.00;;
63975;SDS011;50167;47.958;21.780;2022-12-11T08:01:21;2.10;;;1.40;;
63975;SDS011;50167;47.958;21.780;2022-12-11T08:03:50;1.80;;;1.10;;
63975;SDS011;50167;47.958;21.780;2022-12-11T08:06:17;2.23;;;1.63;;
63975;SDS011;50167;47.958;21.780;2022-12-11T08:08:46;2.07;;;1.47;;
63975;SDS011;50167;47.958;21.780;2022-12-11T08:11:13;2.57;;;1.17;;
63975;SDS011;50167;47.958;21.780;2022-12-11T08:13:40;3.93;;;1.07;;
63975;SDS011;50167;47.958;21.780;2022-12-11T08:16:12;1.43;;;1.30;;
63975;SDS011;50167;47.958;21.780;2022-12-11T08:18:40;1.35;;;0.88;;
63975;SDS011;50167;47.958;21.780;2022-12-11T08:21:08;3.27;;;1.60;;
63975;SDS011;50167;47.958;21.780;2022-12-11T08:23:37;3.40;;;1.73;;
63975;SDS011;50167;47.958;21.780;2022-12-11T08:26:04;1.33;;;1.00;;
63975;SDS011;50167;47.958;21.780;2022-12-11T08:28:33;3.30;;;1.17;;
63975;SDS011;50167;47.958;21.780;2022-12-11T08:30:59;1.77;;;0.87;;
63975;SDS011;50167;47.958;21.780;2022-12-11T08:33:32;2.30;;;1.83;;
63975;SDS011;50167;47.958;21.780;2022-12-11T08:36:04;1.70;;;1.03;;
63975;SDS011;50167;47.958;21.780;2022-12-11T08:38:32;1.50;;;1.40;;
63975;SDS011;50167;47.958;21.780;2022-12-11T08:41:09;2.00;;;1.63;;
63975;SDS011;50167;47.958;21.780;2022-12-11T08:43:41;1.92;;;1.22;;
63975;SDS011;50167;47.958;21.780;2022-12-11T08:46:08;3.03;;;1.87;;
63975;SDS011;50167;47.958;21.780;2022-12-11T08:48:36;4.00;;;2.73;;
63975;SDS011;50167;47.958;21.780;2022-12-11T08:51:05;1.77;;;1.43;;
63975;SDS011;50167;47.958;21.780;2022-12-11T08:53:35;2.22;;;1.55;;
63975;SDS011;50167;47.958;21.780;2022-12-11T08:56:03;4.20;;;1.37;;
63975;SDS011;50167;47.958;21.780;2022-12-11T08:58:32;4.22;;;1.55;;
63975;SDS011;50167;47.958;21.780;2022-12-11T09:00:58;6.70;;;2.43;;
63975;SDS011;50167;47.958;21.780;2022-12-11T09:03:24;2.87;;;1.63;;
63975;SDS011;50167;47.958;21.780;2022-12-11T09:05:50;2.37;;;1.60;;
63975;SDS011;50167;47.958;21.780;2022-12-11T09:08:16;5.43;;;2.13;;
63975;SDS011;50167;47.958;21.780;2022-12-11T09:10:43;2.93;;;2.00;;
63975;SDS011;50167;47.958;21.780;2022-12-11T09:13:09;6.20;;;2.60;;
63975;SDS011;50167;47.958;21.780;2022-12-11T09:15:38;4.13;;;2.70;;
63975;SDS011;50167;47.958;21.780;2022-12-11T09:18:06;7.60;;;3.17;;
63975;SDS011;50167;47.958;21.780;2022-12-11T09:20:35;6.13;;;3.43;;
63975;SDS011;50167;47.958;21.780;2022-12-11T09:23:01;10.23;;;5.57;;
63975;SDS011;50167;47.958;21.780;2022-12-11T09:25:27;9.33;;;4.53;;
63975;SDS011;50167;47.958;21.780;2022-12-11T09:27:53;7.57;;;4.07;;
63975;SDS011;50167;47.958;21.780;2022-12-11T09:30:19;6.80;;;3.43;;
63975;SDS011;50167;47.958;21.780;2022-12-11T09:32:46;18.53;;;7.60;;
63975;SDS011;50167;47.958;21.780;2022-12-11T09:35:11;8.80;;;5.03;;
63975;SDS011;50167;47.958;21.780;2022-12-11T09:37:38;8.13;;;5.30;;
63975;SDS011;50167;47.958;21.780;2022-12-11T09:40:04;7.10;;;5.07;;
63975;SDS011;50167;47.958;21.780;2022-12-11T09:42:56;12.67;;;5.97;;
63975;SDS011;50167;47.958;21.780;2022-12-11T09:45:19;18.87;;;9.00;;
63975;SDS011;50167;47.958;21.780;2022-12-11T09:47:55;9.57;;;5.40;;
63975;SDS011;50167;47.958;21.780;2022-12-11T09:50:22;8.73;;;5.47;;
63975;SDS011;50167;47.958;21.780;2022-12-11T10:01:48;4.63;;;2.67;;
63975;SDS011;50167;47.958;21.780;2022-12-11T10:13:57;3.97;;;2.43;;
63975;SDS011;50167;47.958;21.780;2022-12-11T10:16:47;4.77;;;2.30;;
63975;SDS011;50167;47.958;21.780;2022-12-11T10:23:59;4.30;;;2.80;;
63975;SDS011;50167;47.958;21.780;2022-12-11T10:26:28;11.00;;;6.43;;
63975;SDS011;50167;47.958;21.780;2022-12-11T10:29:00;4.83;;;3.43;;
63975;SDS011;50167;47.958;21.780;2022-12-11T10:34:17;3.00;;;2.20;;
63975;SDS011;50167;47.958;21.780;2022-12-11T10:39:42;4.30;;;3.13;;
63975;SDS011;50167;47.958;21.780;2022-12-11T10:42:12;4.40;;;2.87;;
63975;SDS011;50167;47.958;21.780;2022-12-11T10:44:53;4.93;;;3.40;;
63975;SDS011;50167;47.958;21.780;2022-12-11T10:47:25;4.50;;;2.73;;
63975;SDS011;50167;47.958;21.780;2022-12-11T10:49:57;8.00;;;4.90;;
63975;SDS011;50167;47.958;21.780;2022-12-11T10:52:34;98.60;;;28.50;;
63975;SDS011;50167;47.958;21.780;2022-12-11T10:55:26;19.10;;;8.43;;
63975;SDS011;50167;47.958;21.780;2022-12-11T10:58:05;14.17;;;8.20;;
63975;SDS011;50167;47.958;21.780;2022-12-11T11:00:33;61.37;;;30.77;;
63975;SDS011;50167;47.958;21.780;2022-12-11T11:05:47;6.93;;;4.40;;
63975;SDS011;50167;47.958;21.780;2022-12-11T11:13:24;10.50;;;6.63;;
63975;SDS011;50167;47.958;21.780;2022-12-11T11:16:02;9.20;;;5.25;;
63975;SDS011;50167;47.958;21.780;2022-12-11T11:18:31;7.07;;;4.63;;
63975;SDS011;50167;47.958;21.780;2022-12-11T11:20:58;13.87;;;5.50;;
63975;SDS011;50167;47.958;21.780;2022-12-11T11:23:25;5.57;;;3.67;;
63975;SDS011;50167;47.958;21.780;2022-12-11T11:25:53;6.20;;;3.57;;
63975;SDS011;50167;47.958;21.780;2022-12-11T11:28:27;11.20;;;4.93;;
63975;SDS011;50167;47.958;21.780;2022-12-11T11:31:01;9.13;;;4.80;;
63975;SDS011;50167;47.958;21.780;2022-12-11T11:33:28;8.10;;;5.33;;
63975;SDS011;50167;47.958;21.780;2022-12-11T11:35:57;7.03;;;4.00;;
63975;SDS011;50167;47.958;21.780;2022-12-11T11:38:40;3.62;;;2.75;;
63975;SDS011;50167;47.958;21.780;2022-12-11T11:41:17;10.37;;;5.10;;
63975;SDS011;50167;47.958;21.780;2022-12-11T11:43:54;5.50;;;3.62;;
63975;SDS011;50167;47.958;21.780;2022-12-11T11:49:14;5.47;;;3.30;;
63975;SDS011;50167;47.958;21.780;2022-12-11T11:53:02;4.23;;;3.27;;
63975;SDS011;50167;47.958;21.780;2022-12-11T11:57:52;17.13;;;6.13;;
63975;SDS011;50167;47.958;21.780;2022-12-11T12:00:43;11.93;;;6.27;;
63975;SDS011;50167;47.958;21.780;2022-12-11T12:03:14;5.47;;;4.07;;
63975;SDS011;50167;47.958;21.780;2022-12-11T12:06:02;11.80;;;5.93;;
63975;SDS011;50167;47.958;21.780;2022-12-11T12:34:11;80.47;;;49.43;;
63975;SDS011;50167;47.958;21.780;2022-12-11T12:45:04;4.30;;;3.47;;
63975;SDS011;50167;47.958;21.780;2022-12-11T12:47:44;11.33;;;5.97;;
63975;SDS011;50167;47.958;21.780;2022-12-11T12:50:14;8.00;;;4.23;;
63975;SDS011;50167;47.958;21.780;2022-12-11T12:52:43;6.67;;;4.10;;
63975;SDS011;50167;47.958;21.780;2022-12-11T12:57:57;4.17;;;3.10;;
63975;SDS011;50167;47.958;21.780;2022-12-11T13:03:13;6.03;;;3.77;;
63975;SDS011;50167;47.958;21.780;2022-12-11T13:08:43;8.10;;;5.17;;
63975;SDS011;50167;47.958;21.780;2022-12-11T13:11:12;5.87;;;4.17;;
63975;SDS011;50167;47.958;21.780;2022-12-11T13:13:48;5.97;;;4.10;;
63975;SDS011;50167;47.958;21.780;2022-12-11T13:16:42;4.20;;;3.35;;
63975;SDS011;50167;47.958;21.780;2022-12-11T13:22:03;5.73;;;3.53;;
63975;SDS011;50167;47.958;21.780;2022-12-11T13:24:31;4.47;;;3.47;;
63975;SDS011;50167;47.958;21.780;2022-12-11T13:27:08;5.77;;;4.00;;
63975;SDS011;50167;47.958;21.780;2022-12-11T13:29:38;6.80;;;4.50;;
63975;SDS011;50167;47.958;21.780;2022-12-11T13:34:39;10.43;;;6.00;;
63975;SDS011;50167;47.958;21.780;2022-12-11T13:37:20;6.27;;;4.93;;
63975;SDS011;50167;47.958;21.780;2022-12-11T13:40:04;6.78;;;4.30;;
63975;SDS011;50167;47.958;21.780;2022-12-11T13:42:31;6.37;;;4.37;;
63975;SDS011;50167;47.958;21.780;2022-12-11T13:45:00;6.12;;;3.87;;
63975;SDS011;50167;47.958;21.780;2022-12-11T13:47:27;6.80;;;4.63;;
63975;SDS011;50167;47.958;21.780;2022-12-11T13:50:12;6.63;;;3.77;;
63975;SDS011;50167;47.958;21.780;2022-12-11T13:52:27;8.47;;;4.30;;
63975;SDS011;50167;47.958;21.780;2022-12-11T13:54:55;6.53;;;4.23;;
63975;SDS011;50167;47.958;21.780;2022-12-11T13:57:24;6.23;;;4.17;;
63975;SDS011;50167;47.958;21.780;2022-12-11T13:59:53;5.70;;;3.53;;
63975;SDS011;50167;47.958;21.780;2022-12-11T14:02:28;5.50;;;3.37;;
63975;SDS011;50167;47.958;21.780;2022-12-11T14:05:04;5.70;;;3.70;;
63975;SDS011;50167;47.958;21.780;2022-12-11T14:07:45;4.57;;;3.27;;
63975;SDS011;50167;47.958;21.780;2022-12-11T14:15:51;6.03;;;4.20;;
63975;SDS011;50167;47.958;21.780;2022-12-11T14:18:24;6.80;;;4.47;;
63975;SDS011;50167;47.958;21.780;2022-12-11T14:20:53;6.65;;;4.72;;
63975;SDS011;50167;47.958;21.780;2022-12-11T14:23:26;6.97;;;4.73;;
63975;SDS011;50167;47.958;21.780;2022-12-11T14:25:59;8.57;;;5.00;;
63975;SDS011;50167;47.958;21.780;2022-12-11T14:28:35;5.30;;;3.93;;
63975;SDS011;50167;47.958;21.780;2022-12-11T14:31:03;7.67;;;4.37;;
63975;SDS011;50167;47.958;21.780;2022-12-11T14:33:37;6.20;;;3.93;;
63975;SDS011;50167;47.958;21.780;2022-12-11T14:36:07;5.43;;;3.80;;
63975;SDS011;50167;47.958;21.780;2022-12-11T14:38:35;6.00;;;4.50;;
63975;SDS011;50167;47.958;21.780;2022-12-11T14:41:18;8.30;;;5.23;;
63975;SDS011;50167;47.958;21.780;2022-12-11T14:43:56;8.67;;;6.20;;
63975;SDS011;50167;47.958;21.780;2022-12-11T14:46:33;9.20;;;5.60;;
63975;SDS011;50167;47.958;21.780;2022-12-11T14:49:05;10.23;;;5.67;;
63975;SDS011;50167;47.958;21.780;2022-12-11T14:51:46;9.47;;;6.40;;
63975;SDS011;50167;47.958;21.780;2022-12-11T14:54:25;9.47;;;6.20;;
63975;SDS011;50167;47.958;21.780;2022-12-11T14:57:00;14.60;;;8.97;;
63975;SDS011;50167;47.958;21.780;2022-12-11T14:59:30;12.87;;;8.13;;
63975;SDS011;50167;47.958;21.780;2022-12-11T15:02:17;11.17;;;7.40;;
63975;SDS011;50167;47.958;21.780;2022-12-11T15:04:30;11.93;;;7.30;;
63975;SDS011;50167;47.958;21.780;2022-12-11T15:06:57;11.97;;;7.57;;
63975;SDS011;50167;47.958;21.780;2022-12-11T15:09:25;14.83;;;8.03;;
63975;SDS011;50167;47.958;21.780;2022-12-11T15:12:08;15.33;;;8.60;;
63975;SDS011;50167;47.958;21.780;2022-12-11T15:14:53;13.83;;;7.93;;
63975;SDS011;50167;47.958;21.780;2022-12-11T15:17:20;17.90;;;10.70;;
63975;SDS011;50167;47.958;21.780;2022-12-11T15:19:49;16.07;;;10.27;;
63975;SDS011;50167;47.958;21.780;2022-12-11T15:22:20;13.43;;;9.03;;
63975;SDS011;50167;47.958;21.780;2022-12-11T15:24:50;13.73;;;9.33;;
63975;SDS011;50167;47.958;21.780;2022-12-11T15:27:38;15.03;;;9.27;;
63975;SDS011;50167;47.958;21.780;2022-12-11T15:35:50;16.03;;;9.33;;
63975;SDS011;50167;47.958;21.780;2022-12-11T15:38:34;17.00;;;9.93;;
63975;SDS011;50167;47.958;21.780;2022-12-11T15:41:05;13.03;;;9.87;;
63975;SDS011;50167;47.958;21.780;2022-12-11T15:43:39;17.27;;;10.30;;
63975;SDS011;50167;47.958;21.780;2022-12-11T15:46:06;19.00;;;12.33;;
63975;SDS011;50167;47.958;21.780;2022-12-11T15:48:32;26.53;;;15.53;;
63975;SDS011;50167;47.958;21.780;2022-12-11T15:50:58;28.30;;;15.50;;
63975;SDS011;50167;47.958;21.780;2022-12-11T15:53:25;42.17;;;20.73;;
63975;SDS011;50167;47.958;21.780;2022-12-11T15:55:51;38.10;;;21.70;;
63975;SDS011;50167;47.958;21.780;2022-12-11T15:58:18;31.33;;;18.13;;
63975;SDS011;50167;47.958;21.780;2022-12-11T16:00:48;35.52;;;19.35;;
63975;SDS011;50167;47.958;21.780;2022-12-11T16:03:16;65.67;;;34.03;;
63975;SDS011;50167;47.958;21.780;2022-12-11T16:05:43;87.20;;;43.33;;
63975;SDS011;50167;47.958;21.780;2022-12-11T16:08:14;62.73;;;33.37;;
63975;SDS011;50167;47.958;21.780;2022-12-11T16:10:43;42.97;;;23.13;;
63975;SDS011;50167;47.958;21.780;2022-12-11T16:13:11;32.67;;;18.70;;
63975;SDS011;50167;47.958;21.780;2022-12-11T16:15:39;31.00;;;17.30;;
63975;SDS011;50167;47.958;21.780;2022-12-11T16:18:09;24.73;;;15.13;;
63975;SDS011;50167;47.958;21.780;2022-12-11T16:20:39;24.82;;;14.70;;
63975;SDS011;50167;47.958;21.780;2022-12-11T16:23:07;19.83;;;11.97;;
63975;SDS011;50167;47.958;21.780;2022-12-11T16:25:38;18.27;;;11.97;;
63975;SDS011;50167;47.958;21.780;2022-12-11T16:28:07;19.33;;;12.00;;
63975;SDS011;50167;47.958;21.780;2022-12-11T16:30:35;23.67;;;13.30;;
63975;SDS011;50167;47.958;21.780;2022-12-11T16:33:04;22.67;;;13.37;;
63975;SDS011;50167;47.958;21.780;2022-12-11T16:35:31;24.87;;;13.57;;
63975;SDS011;50167;47.958;21.780;2022-12-11T16:37:58;23.63;;;13.33;;
63975;SDS011;50167;47.958;21.780;2022-12-11T16:40:24;23.50;;;14.53;;
63975;SDS011;50167;47.958;21.780;2022-12-11T16:42:50;21.63;;;11.97;;
63975;SDS011;50167;47.958;21.780;2022-12-11T16:45:18;20.87;;;11.50;;
63975;SDS011;50167;47.958;21.780;2022-12-11T16:47:46;19.17;;;10.30;;
63975;SDS011;50167;47.958;21.780;2022-12-11T16:50:13;22.40;;;11.50;;
63975;SDS011;50167;47.958;21.780;2022-12-11T16:52:41;15.30;;;8.27;;
63975;SDS011;50167;47.958;21.780;2022-12-11T16:55:08;18.97;;;9.77;;